sensor_id;sensor_type;location;lat;lon;timestamp;temperature;humidity
7822;DHT22;3956;50.558;9.678;2022-12-18T00:00:12;-9.60;1.00
7822;DHT22;3956;50.558;9.678;2022-12-18T00:02:41;-9.60;1.00
7822;DHT22;3956;50.558;9.678;2022-12-18T00:05:10;-9.60;1.00
7822;DHT22;3956;50.558;9.678;2022-12-18T00:07:39;-9.60;1.00
7822;DHT22;3956;50.558;9.678;2022-12-18T00:10:08;-9.70;1.00
7822;DHT22;3956;50.558;9.678;2022-12-18T00:12:36;-9.60;1.00
7822;DHT22;3956;50.558;9.678;2022-12-18T00:15:05;-9.80;1.00
7822;DHT22;3956;50.558;9.678;2022-12-18T00:17:38;-9.80;1.00
7822;DHT22;3956;50.558;9.678;2022-12-18T00:20:09;-9.80;1.00
7822;DHT22;3956;50.558;9.678;2022-12-18T00:22:38;-9.90;1.00
7822;DHT22;3956;50.558;9.678;2022-12-18T00:25:07;-10.00;1.00
7822;DHT22;3956;50.558;9.678;2022-12-18T00:27:35;-10.10;1.00
7822;DHT22;3956;50.558;9.678;2022-12-18T00:30:05;-10.10;1.00
7822;DHT22;3956;50.558;9.678;2022-12-18T00:32:33;-10.00;1.00
7822;DHT22;3956;50.558;9.678;2022-12-18T00:35:02;-9.80;1.00
7822;DHT22;3956;50.558;9.678;2022-12-18T00:37:33;-9.80;1.00
7822;DHT22;3956;50.558;9.678;2022-12-18T00:40:01;-9.80;1.00
7822;DHT22;3956;50.558;9.678;2022-12-18T00:42:30;-9.70;1.00
7822;DHT22;3956;50.558;9.678;2022-12-18T00:45:12;-9.70;1.00
7822;DHT22;3956;50.558;9.678;2022-12-18T00:47:40;-9.80;1.00
7822;DHT22;3956;50.558;9.678;2022-12-18T00:50:09;-9.80;1.00
7822;DHT22;3956;50.558;9.678;2022-12-18T00:52:39;-10.10;1.00
7822;DHT22;3956;50.558;9.678;2022-12-18T00:55:08;-10.10;1.00
7822;DHT22;3956;50.558;9.678;2022-12-18T00:57:36;-10.10;1.00
7822;DHT22;3956;50.558;9.678;2022-12-18T01:00:08;-10.20;1.00
7822;DHT22;3956;50.558;9.678;2022-12-18T01:02:37;-10.10;1.00
7822;DHT22;3956;50.558;9.678;2022-12-18T01:05:07;-10.10;1.00
7822;DHT22;3956;50.558;9.678;2022-12-18T01:07:36;-10.10;1.00
7822;DHT22;3956;50.558;9.678;2022-12-18T01:10:07;-10.10;1.00
7822;DHT22;3956;50.558;9.678;2022-12-18T01:12:36;-10.00;1.00
7822;DHT22;3956;50.558;9.678;2022-12-18T01:15:05;-10.10;1.00
7822;DHT22;3956;50.558;9.678;2022-12-18T01:17:34;-10.10;1.00
7822;DHT22;3956;50.558;9.678;2022-12-18T01:20:03;-10.10;1.00
7822;DHT22;3956;50.558;9.678;2022-12-18T01:22:34;-10.20;1.00
7822;DHT22;3956;50.558;9.678;2022-12-18T01:25:03;-10.10;1.00
7822;DHT22;3956;50.558;9.678;2022-12-18T01:27:34;-10.00;1.00
7822;DHT22;3956;50.558;9.678;2022-12-18T01:30:03;-10.00;1.00
7822;DHT22;3956;50.558;9.678;2022-12-18T01:32:32;-10.00;1.00
7822;DHT22;3956;50.558;9.678;2022-12-18T01:35:01;-10.00;1.00
7822;DHT22;3956;50.558;9.678;2022-12-18T01:37:29;-10.00;1.00
7822;DHT22;3956;50.558;9.678;2022-12-18T01:39:57;-9.90;1.00
7822;DHT22;3956;50.558;9.678;2022-12-18T01:42:26;-9.90;1.00
7822;DHT22;3956;50.558;9.678;2022-12-18T01:44:59;-10.00;1.00
7822;DHT22;3956;50.558;9.678;2022-12-18T01:47:32;-10.00;1.00
7822;DHT22;3956;50.558;9.678;2022-12-18T01:50:03;-10.10;1.00
7822;DHT22;3956;50.558;9.678;2022-12-18T01:52:33;-10.20;1.00
7822;DHT22;3956;50.558;9.678;2022-12-18T01:55:04;-10.40;1.00
7822;DHT22;3956;50.558;9.678;2022-12-18T01:57:33;-10.50;1.00
7822;DHT22;3956;50.558;9.678;2022-12-18T02:00:09;-10.50;1.00
7822;DHT22;3956;50.558;9.678;2022-12-18T02:02:39;-10.60;1.00
7822;DHT22;3956;50.558;9.678;2022-12-18T02:05:09;-10.70;1.00
7822;DHT22;3956;50.558;9.678;2022-12-18T02:07:44;-10.70;1.00
7822;DHT22;3956;50.558;9.678;2022-12-18T02:10:21;-10.70;1.00
7822;DHT22;3956;50.558;9.678;2022-12-18T02:12:55;-10.70;1.00
7822;DHT22;3956;50.558;9.678;2022-12-18T02:15:30;-10.50;1.00
7822;DHT22;3956;50.558;9.678;2022-12-18T02:18:07;-10.40;1.00
7822;DHT22;3956;50.558;9.678;2022-12-18T02:20:42;-10.40;1.00
7822;DHT22;3956;50.558;9.678;2022-12-18T02:23:21;-10.40;1.00
7822;DHT22;3956;50.558;9.678;2022-12-18T02:26:00;-10.40;1.00
7822;DHT22;3956;50.558;9.678;2022-12-18T02:28:31;-10.20;1.00
7822;DHT22;3956;50.558;9.678;2022-12-18T02:31:03;-10.30;1.00
7822;DHT22;3956;50.558;9.678;2022-12-18T02:33:34;-10.30;1.00
7822;DHT22;3956;50.558;9.678;2022-12-18T02:36:05;-10.50;1.00
7822;DHT22;3956;50.558;9.678;2022-12-18T02:38:36;-10.60;1.00
7822;DHT22;3956;50.558;9.678;2022-12-18T02:41:06;-10.60;1.00
7822;DHT22;3956;50.558;9.678;2022-12-18T02:43:35;-10.70;1.00
7822;DHT22;3956;50.558;9.678;2022-12-18T02:49:16;-10.70;1.00
7822;DHT22;3956;50.558;9.678;2022-12-18T02:51:53;-10.80;1.00
7822;DHT22;3956;50.558;9.678;2022-12-18T02:54:39;-11.00;1.00
7822;DHT22;3956;50.558;9.678;2022-12-18T02:57:16;-10.90;1.00
7822;DHT22;3956;50.558;9.678;2022-12-18T02:59:56;-10.90;1.00
7822;DHT22;3956;50.558;9.678;2022-12-18T03:02:31;-10.80;1.00
7822;DHT22;3956;50.558;9.678;2022-12-18T03:05:09;-10.80;1.00
7822;DHT22;3956;50.558;9.678;2022-12-18T03:07:42;-10.90;1.00
7822;DHT22;3956;50.558;9.678;2022-12-18T03:10:18;-10.90;1.00
7822;DHT22;3956;50.558;9.678;2022-12-18T03:12:52;-10.90;1.00
7822;DHT22;3956;50.558;9.678;2022-12-18T03:15:24;-10.80;1.00
7822;DHT22;3956;50.558;9.678;2022-12-18T03:17:58;-10.80;1.00
7822;DHT22;3956;50.558;9.678;2022-12-18T03:20:29;-10.70;1.00
7822;DHT22;3956;50.558;9.678;2022-12-18T03:23:04;-10.70;1.00
7822;DHT22;3956;50.558;9.678;2022-12-18T03:25:37;-10.80;1.00
7822;DHT22;3956;50.558;9.678;2022-12-18T03:28:09;-10.80;1.00
7822;DHT22;3956;50.558;9.678;2022-12-18T03:30:41;-10.70;1.00
7822;DHT22;3956;50.558;9.678;2022-12-18T03:33:16;-10.70;1.00
7822;DHT22;3956;50.558;9.678;2022-12-18T03:35:46;-10.70;1.00
7822;DHT22;3956;50.558;9.678;2022-12-18T03:38:15;-10.70;1.00
7822;DHT22;3956;50.558;9.678;2022-12-18T03:40:53;-10.90;1.00
7822;DHT22;3956;50.558;9.678;2022-12-18T03:43:35;-11.00;1.00
7822;DHT22;3956;50.558;9.678;2022-12-18T03:46:09;-11.00;1.00
7822;DHT22;3956;50.558;9.678;2022-12-18T03:48:44;-11.00;1.00
7822;DHT22;3956;50.558;9.678;2022-12-18T03:51:21;-10.90;1.00
7822;DHT22;3956;50.558;9.678;2022-12-18T03:53:55;-10.90;1.00
7822;DHT22;3956;50.558;9.678;2022-12-18T03:56:28;-11.00;1.00
7822;DHT22;3956;50.558;9.678;2022-12-18T03:59:00;-10.90;1.00
7822;DHT22;3956;50.558;9.678;2022-12-18T04:01:32;-10.90;1.00
7822;DHT22;3956;50.558;9.678;2022-12-18T04:04:02;-11.00;1.00
7822;DHT22;3956;50.558;9.678;2022-12-18T04:06:32;-11.00;1.00
7822;DHT22;3956;50.558;9.678;2022-12-18T04:09:04;-11.00;1.00
7822;DHT22;3956;50.558;9.678;2022-12-18T04:11:33;-11.00;1.00
7822;DHT22;3956;50.558;9.678;2022-12-18T04:14:02;-11.00;1.00
7822;DHT22;3956;50.558;9.678;2022-12-18T04:16:33;-11.10;1.00
7822;DHT22;3956;50.558;9.678;2022-12-18T04:19:01;-10.90;1.00
7822;DHT22;3956;50.558;9.678;2022-12-18T04:21:30;-11.10;1.00
7822;DHT22;3956;50.558;9.678;2022-12-18T04:23:58;-11.00;1.00
7822;DHT22;3956;50.558;9.678;2022-12-18T04:26:27;-11.00;1.00
7822;DHT22;3956;50.558;9.678;2022-12-18T04:28:55;-11.00;1.00
7822;DHT22;3956;50.558;9.678;2022-12-18T04:31:25;-11.00;1.00
7822;DHT22;3956;50.558;9.678;2022-12-18T04:33:53;-11.10;1.00
7822;DHT22;3956;50.558;9.678;2022-12-18T04:36:21;-11.10;1.00
7822;DHT22;3956;50.558;9.678;2022-12-18T04:38:53;-11.10;1.00
7822;DHT22;3956;50.558;9.678;2022-12-18T04:41:21;-11.10;1.00
7822;DHT22;3956;50.558;9.678;2022-12-18T04:43:49;-11.10;1.00
7822;DHT22;3956;50.558;9.678;2022-12-18T04:46:18;-11.20;1.00
7822;DHT22;3956;50.558;9.678;2022-12-18T04:48:47;-11.10;1.00
7822;DHT22;3956;50.558;9.678;2022-12-18T04:51:16;-11.10;1.00
7822;DHT22;3956;50.558;9.678;2022-12-18T04:53:52;-11.00;1.00
7822;DHT22;3956;50.558;9.678;2022-12-18T04:56:20;-11.00;1.00
7822;DHT22;3956;50.558;9.678;2022-12-18T04:58:49;-10.90;1.00
7822;DHT22;3956;50.558;9.678;2022-12-18T05:01:18;-11.00;1.00
7822;DHT22;3956;50.558;9.678;2022-12-18T05:03:48;-11.10;1.00
7822;DHT22;3956;50.558;9.678;2022-12-18T05:06:16;-11.00;1.00
7822;DHT22;3956;50.558;9.678;2022-12-18T05:08:44;-11.10;1.00
7822;DHT22;3956;50.558;9.678;2022-12-18T05:11:14;-11.10;1.00
7822;DHT22;3956;50.558;9.678;2022-12-18T05:13:44;-11.30;1.00
7822;DHT22;3956;50.558;9.678;2022-12-18T05:16:13;-11.20;1.00
7822;DHT22;3956;50.558;9.678;2022-12-18T05:18:42;-11.10;1.00
7822;DHT22;3956;50.558;9.678;2022-12-18T05:21:12;-11.10;1.00
7822;DHT22;3956;50.558;9.678;2022-12-18T05:23:40;-11.00;1.00
7822;DHT22;3956;50.558;9.678;2022-12-18T05:26:14;-10.90;1.00
7822;DHT22;3956;50.558;9.678;2022-12-18T05:28:43;-10.90;1.00
7822;DHT22;3956;50.558;9.678;2022-12-18T05:31:11;-11.00;1.00
7822;DHT22;3956;50.558;9.678;2022-12-18T05:33:40;-11.00;1.00
7822;DHT22;3956;50.558;9.678;2022-12-18T05:36:11;-10.90;1.00
7822;DHT22;3956;50.558;9.678;2022-12-18T05:38:39;-10.90;1.00
7822;DHT22;3956;50.558;9.678;2022-12-18T05:41:09;-10.90;1.00
7822;DHT22;3956;50.558;9.678;2022-12-18T05:43:39;-10.90;1.00
7822;DHT22;3956;50.558;9.678;2022-12-18T05:46:11;-10.90;1.00
7822;DHT22;3956;50.558;9.678;2022-12-18T05:48:40;-10.90;1.00
7822;DHT22;3956;50.558;9.678;2022-12-18T05:51:13;-11.00;1.00
7822;DHT22;3956;50.558;9.678;2022-12-18T05:53:43;-11.10;1.00
7822;DHT22;3956;50.558;9.678;2022-12-18T05:56:13;-10.90;1.00
7822;DHT22;3956;50.558;9.678;2022-12-18T05:58:43;-10.90;1.00
7822;DHT22;3956;50.558;9.678;2022-12-18T06:01:13;-11.10;1.00
7822;DHT22;3956;50.558;9.678;2022-12-18T06:03:42;-11.10;1.00
7822;DHT22;3956;50.558;9.678;2022-12-18T06:06:18;-11.10;1.00
7822;DHT22;3956;50.558;9.678;2022-12-18T06:08:47;-11.00;1.00
7822;DHT22;3956;50.558;9.678;2022-12-18T06:11:18;-11.20;1.00
7822;DHT22;3956;50.558;9.678;2022-12-18T06:13:49;-11.30;1.00
7822;DHT22;3956;50.558;9.678;2022-12-18T06:16:24;-11.20;1.00
7822;DHT22;3956;50.558;9.678;2022-12-18T06:18:52;-11.10;1.00
7822;DHT22;3956;50.558;9.678;2022-12-18T06:21:22;-11.20;1.00
7822;DHT22;3956;50.558;9.678;2022-12-18T06:23:50;-11.10;1.00
7822;DHT22;3956;50.558;9.678;2022-12-18T06:26:18;-11.10;1.00
7822;DHT22;3956;50.558;9.678;2022-12-18T06:28:54;-11.30;1.00
7822;DHT22;3956;50.558;9.678;2022-12-18T06:31:22;-11.30;1.00
7822;DHT22;3956;50.558;9.678;2022-12-18T06:33:50;-11.40;1.00
7822;DHT22;3956;50.558;9.678;2022-12-18T06:36:19;-11.30;1.00
7822;DHT22;3956;50.558;9.678;2022-12-18T06:38:49;-11.30;1.00
7822;DHT22;3956;50.558;9.678;2022-12-18T06:41:19;-11.30;1.00
7822;DHT22;3956;50.558;9.678;2022-12-18T06:43:48;-11.30;1.00
7822;DHT22;3956;50.558;9.678;2022-12-18T06:46:16;-11.40;1.00
7822;DHT22;3956;50.558;9.678;2022-12-18T06:48:47;-11.30;1.00
7822;DHT22;3956;50.558;9.678;2022-12-18T06:51:18;-11.20;1.00
7822;DHT22;3956;50.558;9.678;2022-12-18T06:53:46;-11.20;1.00
7822;DHT22;3956;50.558;9.678;2022-12-18T06:56:16;-11.20;1.00
7822;DHT22;3956;50.558;9.678;2022-12-18T06:58:44;-11.10;1.00
7822;DHT22;3956;50.558;9.678;2022-12-18T07:01:13;-11.30;1.00
7822;DHT22;3956;50.558;9.678;2022-12-18T07:03:42;-11.20;1.00
7822;DHT22;3956;50.558;9.678;2022-12-18T07:06:15;-11.20;1.00
7822;DHT22;3956;50.558;9.678;2022-12-18T07:08:44;-11.30;1.00
7822;DHT22;3956;50.558;9.678;2022-12-18T07:11:12;-11.30;1.00
7822;DHT22;3956;50.558;9.678;2022-12-18T07:13:42;-11.20;1.00
7822;DHT22;3956;50.558;9.678;2022-12-18T07:16:12;-11.30;1.00
7822;DHT22;3956;50.558;9.678;2022-12-18T07:18:50;-11.30;1.00
7822;DHT22;3956;50.558;9.678;2022-12-18T07:21:19;-11.30;1.00
7822;DHT22;3956;50.558;9.678;2022-12-18T07:23:47;-11.30;1.00
7822;DHT22;3956;50.558;9.678;2022-12-18T07:26:17;-11.30;1.00
7822;DHT22;3956;50.558;9.678;2022-12-18T07:28:47;-11.30;1.00
7822;DHT22;3956;50.558;9.678;2022-12-18T07:31:17;-11.30;1.00
7822;DHT22;3956;50.558;9.678;2022-12-18T07:33:48;-11.30;1.00
7822;DHT22;3956;50.558;9.678;2022-12-18T07:36:17;-11.30;9.90
7822;DHT22;3956;50.558;9.678;2022-12-18T07:38:47;-11.30;1.70
7822;DHT22;3956;50.558;9.678;2022-12-18T07:41:16;-11.30;1.00
7822;DHT22;3956;50.558;9.678;2022-12-18T07:43:47;-11.30;5.10
7822;DHT22;3956;50.558;9.678;2022-12-18T07:46:15;-11.20;2.40
7822;DHT22;3956;50.558;9.678;2022-12-18T07:48:44;-11.20;1.00
7822;DHT22;3956;50.558;9.678;2022-12-18T07:51:16;-11.10;1.00
7822;DHT22;3956;50.558;9.678;2022-12-18T07:53:46;-11.00;8.30
7822;DHT22;3956;50.558;9.678;2022-12-18T07:56:18;-11.20;7.40
7822;DHT22;3956;50.558;9.678;2022-12-18T07:58:58;-11.20;8.70
7822;DHT22;3956;50.558;9.678;2022-12-18T08:01:29;-11.20;1.00
7822;DHT22;3956;50.558;9.678;2022-12-18T08:03:58;-11.10;1.00
7822;DHT22;3956;50.558;9.678;2022-12-18T08:06:26;-11.00;1.00
7822;DHT22;3956;50.558;9.678;2022-12-18T08:08:56;-10.90;1.00
7822;DHT22;3956;50.558;9.678;2022-12-18T08:11:26;-11.00;1.00
7822;DHT22;3956;50.558;9.678;2022-12-18T08:13:55;-11.00;1.00
7822;DHT22;3956;50.558;9.678;2022-12-18T08:16:25;-11.10;1.00
7822;DHT22;3956;50.558;9.678;2022-12-18T08:18:54;-10.80;1.00
7822;DHT22;3956;50.558;9.678;2022-12-18T08:21:24;-10.70;1.00
7822;DHT22;3956;50.558;9.678;2022-12-18T08:23:54;-10.60;1.00
7822;DHT22;3956;50.558;9.678;2022-12-18T08:26:24;-10.30;1.00
7822;DHT22;3956;50.558;9.678;2022-12-18T08:28:54;-10.30;1.00
7822;DHT22;3956;50.558;9.678;2022-12-18T08:31:25;-10.40;1.00
7822;DHT22;3956;50.558;9.678;2022-12-18T08:33:54;-10.60;1.00
7822;DHT22;3956;50.558;9.678;2022-12-18T08:36:23;-10.40;1.00
7822;DHT22;3956;50.558;9.678;2022-12-18T08:38:53;-10.50;1.00
7822;DHT22;3956;50.558;9.678;2022-12-18T08:41:21;-10.60;1.00
7822;DHT22;3956;50.558;9.678;2022-12-18T08:43:50;-10.50;1.00
7822;DHT22;3956;50.558;9.678;2022-12-18T08:46:39;-10.70;1.00
7822;DHT22;3956;50.558;9.678;2022-12-18T08:49:09;-10.60;1.00
7822;DHT22;3956;50.558;9.678;2022-12-18T08:51:38;-10.70;1.00
7822;DHT22;3956;50.558;9.678;2022-12-18T08:54:06;-10.40;1.00
7822;DHT22;3956;50.558;9.678;2022-12-18T08:56:35;-10.40;1.00
7822;DHT22;3956;50.558;9.678;2022-12-18T08:59:03;-10.30;1.00
7822;DHT22;3956;50.558;9.678;2022-12-18T09:01:32;-10.10;1.00
7822;DHT22;3956;50.558;9.678;2022-12-18T09:04:02;-9.90;1.00
7822;DHT22;3956;50.558;9.678;2022-12-18T09:06:33;-9.70;1.00
7822;DHT22;3956;50.558;9.678;2022-12-18T09:09:03;-9.80;1.00
7822;DHT22;3956;50.558;9.678;2022-12-18T09:11:32;-9.50;1.00
7822;DHT22;3956;50.558;9.678;2022-12-18T09:14:02;-9.70;1.00
7822;DHT22;3956;50.558;9.678;2022-12-18T09:16:31;-9.80;1.00
7822;DHT22;3956;50.558;9.678;2022-12-18T09:19:04;-9.80;1.00
7822;DHT22;3956;50.558;9.678;2022-12-18T09:21:34;-9.60;1.00
7822;DHT22;3956;50.558;9.678;2022-12-18T09:24:13;-9.70;1.00
7822;DHT22;3956;50.558;9.678;2022-12-18T09:26:42;-9.50;1.00
7822;DHT22;3956;50.558;9.678;2022-12-18T09:29:14;-9.50;1.00
7822;DHT22;3956;50.558;9.678;2022-12-18T09:31:44;-9.50;1.00
7822;DHT22;3956;50.558;9.678;2022-12-18T09:34:14;-9.40;1.00
7822;DHT22;3956;50.558;9.678;2022-12-18T09:36:43;-9.60;1.00
7822;DHT22;3956;50.558;9.678;2022-12-18T09:39:13;-9.50;1.00
7822;DHT22;3956;50.558;9.678;2022-12-18T09:41:46;-9.20;1.00
7822;DHT22;3956;50.558;9.678;2022-12-18T09:44:22;-9.10;1.00
7822;DHT22;3956;50.558;9.678;2022-12-18T09:46:55;-9.20;1.00
7822;DHT22;3956;50.558;9.678;2022-12-18T09:49:29;-9.20;1.00
7822;DHT22;3956;50.558;9.678;2022-12-18T09:52:02;-9.20;1.00
7822;DHT22;3956;50.558;9.678;2022-12-18T09:54:36;-8.90;1.00
7822;DHT22;3956;50.558;9.678;2022-12-18T09:57:05;-9.00;1.00
7822;DHT22;3956;50.558;9.678;2022-12-18T09:59:41;-9.10;1.00
7822;DHT22;3956;50.558;9.678;2022-12-18T10:02:15;-8.90;1.00
7822;DHT22;3956;50.558;9.678;2022-12-18T10:04:50;-8.80;1.00
7822;DHT22;3956;50.558;9.678;2022-12-18T10:07:26;-8.70;1.00
7822;DHT22;3956;50.558;9.678;2022-12-18T10:10:03;-8.70;1.00
7822;DHT22;3956;50.558;9.678;2022-12-18T10:12:42;-9.20;1.00
7822;DHT22;3956;50.558;9.678;2022-12-18T10:15:17;-9.10;1.00
7822;DHT22;3956;50.558;9.678;2022-12-18T10:17:51;-8.90;1.00
7822;DHT22;3956;50.558;9.678;2022-12-18T10:20:30;-9.00;1.00
7822;DHT22;3956;50.558;9.678;2022-12-18T10:23:03;-8.90;1.00
7822;DHT22;3956;50.558;9.678;2022-12-18T10:25:36;-8.70;1.00
7822;DHT22;3956;50.558;9.678;2022-12-18T10:28:09;-8.60;1.00
7822;DHT22;3956;50.558;9.678;2022-12-18T10:30:39;-8.30;1.00
7822;DHT22;3956;50.558;9.678;2022-12-18T10:33:10;-8.20;1.00
7822;DHT22;3956;50.558;9.678;2022-12-18T10:35:45;-8.10;1.00
7822;DHT22;3956;50.558;9.678;2022-12-18T10:38:24;-8.00;1.00
7822;DHT22;3956;50.558;9.678;2022-12-18T10:40:55;-8.10;1.00
7822;DHT22;3956;50.558;9.678;2022-12-18T10:43:26;-7.90;1.00
7822;DHT22;3956;50.558;9.678;2022-12-18T10:46:11;-7.80;1.00
7822;DHT22;3956;50.558;9.678;2022-12-18T10:48:50;-7.60;1.00
7822;DHT22;3956;50.558;9.678;2022-12-18T10:51:23;-7.70;1.00
7822;DHT22;3956;50.558;9.678;2022-12-18T10:53:59;-7.60;1.00
7822;DHT22;3956;50.558;9.678;2022-12-18T10:56:30;-7.50;1.00
7822;DHT22;3956;50.558;9.678;2022-12-18T10:59:01;-7.50;1.00
7822;DHT22;3956;50.558;9.678;2022-12-18T11:01:46;-7.30;1.00
7822;DHT22;3956;50.558;9.678;2022-12-18T11:04:18;-7.20;1.00
7822;DHT22;3956;50.558;9.678;2022-12-18T11:07:00;-7.30;1.00
7822;DHT22;3956;50.558;9.678;2022-12-18T11:09:30;-7.10;1.00
7822;DHT22;3956;50.558;9.678;2022-12-18T11:12:01;-7.10;1.00
7822;DHT22;3956;50.558;9.678;2022-12-18T11:14:32;-7.00;1.00
7822;DHT22;3956;50.558;9.678;2022-12-18T11:17:01;-6.90;1.00
7822;DHT22;3956;50.558;9.678;2022-12-18T11:19:53;-6.80;1.00
7822;DHT22;3956;50.558;9.678;2022-12-18T11:22:28;-6.80;1.00
7822;DHT22;3956;50.558;9.678;2022-12-18T11:24:59;-6.70;1.00
7822;DHT22;3956;50.558;9.678;2022-12-18T11:27:52;-6.40;1.00
7822;DHT22;3956;50.558;9.678;2022-12-18T11:30:26;-6.20;1.00
7822;DHT22;3956;50.558;9.678;2022-12-18T11:32:59;-6.30;1.00
7822;DHT22;3956;50.558;9.678;2022-12-18T11:35:37;-6.20;1.00
7822;DHT22;3956;50.558;9.678;2022-12-18T11:38:19;-6.20;1.00
7822;DHT22;3956;50.558;9.678;2022-12-18T11:40:55;-6.20;1.00
7822;DHT22;3956;50.558;9.678;2022-12-18T11:43:28;-6.20;1.00
7822;DHT22;3956;50.558;9.678;2022-12-18T11:46:01;-6.30;1.00
7822;DHT22;3956;50.558;9.678;2022-12-18T11:48:32;-6.10;1.00
7822;DHT22;3956;50.558;9.678;2022-12-18T11:51:05;-6.00;1.00
7822;DHT22;3956;50.558;9.678;2022-12-18T11:53:39;-5.90;1.00
7822;DHT22;3956;50.558;9.678;2022-12-18T11:56:25;-5.90;1.00
7822;DHT22;3956;50.558;9.678;2022-12-18T11:59:00;-5.80;1.00
7822;DHT22;3956;50.558;9.678;2022-12-18T12:01:40;-5.60;1.00
7822;DHT22;3956;50.558;9.678;2022-12-18T12:04:50;-5.80;1.00
7822;DHT22;3956;50.558;9.678;2022-12-18T12:07:32;-5.50;1.00
7822;DHT22;3956;50.558;9.678;2022-12-18T12:10:15;-5.40;1.00
7822;DHT22;3956;50.558;9.678;2022-12-18T12:13:00;-5.50;1.00
7822;DHT22;3956;50.558;9.678;2022-12-18T12:15:38;-5.50;1.00
7822;DHT22;3956;50.558;9.678;2022-12-18T12:18:22;-5.40;1.00
7822;DHT22;3956;50.558;9.678;2022-12-18T12:20:58;-5.30;1.00
7822;DHT22;3956;50.558;9.678;2022-12-18T12:23:37;-5.30;1.00
7822;DHT22;3956;50.558;9.678;2022-12-18T12:26:12;-5.20;1.00
7822;DHT22;3956;50.558;9.678;2022-12-18T12:29:00;-5.20;1.00
7822;DHT22;3956;50.558;9.678;2022-12-18T12:31:47;-5.20;1.00
7822;DHT22;3956;50.558;9.678;2022-12-18T12:34:24;-5.00;1.00
7822;DHT22;3956;50.558;9.678;2022-12-18T12:37:03;-5.10;1.00
7822;DHT22;3956;50.558;9.678;2022-12-18T12:39:39;-4.80;1.00
7822;DHT22;3956;50.558;9.678;2022-12-18T12:42:15;-5.20;1.00
7822;DHT22;3956;50.558;9.678;2022-12-18T12:45:06;-5.30;1.00
7822;DHT22;3956;50.558;9.678;2022-12-18T12:47:38;-5.30;1.00
7822;DHT22;3956;50.558;9.678;2022-12-18T12:50:15;-5.20;1.00
7822;DHT22;3956;50.558;9.678;2022-12-18T12:52:47;-5.30;1.00
7822;DHT22;3956;50.558;9.678;2022-12-18T12:55:19;-5.30;1.00
7822;DHT22;3956;50.558;9.678;2022-12-18T12:57:58;-5.30;1.00
7822;DHT22;3956;50.558;9.678;2022-12-18T13:00:34;-5.10;1.00
7822;DHT22;3956;50.558;9.678;2022-12-18T13:03:08;-5.10;1.00
7822;DHT22;3956;50.558;9.678;2022-12-18T13:05:44;-5.00;1.00
7822;DHT22;3956;50.558;9.678;2022-12-18T13:08:23;-5.10;1.00
7822;DHT22;3956;50.558;9.678;2022-12-18T13:10:53;-5.10;1.00
7822;DHT22;3956;50.558;9.678;2022-12-18T13:13:50;-4.90;1.00
7822;DHT22;3956;50.558;9.678;2022-12-18T13:16:19;-5.00;1.00
7822;DHT22;3956;50.558;9.678;2022-12-18T13:18:49;-5.00;1.00
7822;DHT22;3956;50.558;9.678;2022-12-18T13:21:23;-4.90;1.00
7822;DHT22;3956;50.558;9.678;2022-12-18T13:23:54;-5.00;1.00
7822;DHT22;3956;50.558;9.678;2022-12-18T13:26:31;-5.00;1.00
7822;DHT22;3956;50.558;9.678;2022-12-18T13:29:04;-4.90;1.00
7822;DHT22;3956;50.558;9.678;2022-12-18T13:32:19;-5.00;1.00
7822;DHT22;3956;50.558;9.678;2022-12-18T13:37:56;-5.00;1.00
7822;DHT22;3956;50.558;9.678;2022-12-18T13:43:30;-4.70;1.00
7822;DHT22;3956;50.558;9.678;2022-12-18T13:46:03;-4.70;1.00
7822;DHT22;3956;50.558;9.678;2022-12-18T13:48:34;-4.60;1.00
7822;DHT22;3956;50.558;9.678;2022-12-18T13:51:06;-4.60;1.00
7822;DHT22;3956;50.558;9.678;2022-12-18T13:53:38;-4.60;1.00
7822;DHT22;3956;50.558;9.678;2022-12-18T13:56:07;-4.60;1.00
7822;DHT22;3956;50.558;9.678;2022-12-18T13:58:36;-4.50;1.00
7822;DHT22;3956;50.558;9.678;2022-12-18T14:01:21;-4.60;1.00
7822;DHT22;3956;50.558;9.678;2022-12-18T14:03:50;-4.60;1.00
7822;DHT22;3956;50.558;9.678;2022-12-18T14:06:21;-4.50;1.00
7822;DHT22;3956;50.558;9.678;2022-12-18T14:08:53;-4.40;1.00
7822;DHT22;3956;50.558;9.678;2022-12-18T14:11:36;-4.50;1.00
7822;DHT22;3956;50.558;9.678;2022-12-18T14:14:07;-4.40;1.00
7822;DHT22;3956;50.558;9.678;2022-12-18T14:16:41;-4.50;1.00
7822;DHT22;3956;50.558;9.678;2022-12-18T14:19:15;-4.50;1.00
7822;DHT22;3956;50.558;9.678;2022-12-18T14:21:56;-4.50;1.00
7822;DHT22;3956;50.558;9.678;2022-12-18T14:24:39;-4.40;1.00
7822;DHT22;3956;50.558;9.678;2022-12-18T14:27:18;-4.50;1.00
7822;DHT22;3956;50.558;9.678;2022-12-18T14:29:48;-4.60;1.00
7822;DHT22;3956;50.558;9.678;2022-12-18T14:32:19;-4.60;1.00
7822;DHT22;3956;50.558;9.678;2022-12-18T14:34:48;-4.60;1.00
7822;DHT22;3956;50.558;9.678;2022-12-18T14:37:20;-4.50;1.00
7822;DHT22;3956;50.558;9.678;2022-12-18T14:39:59;-4.60;1.00
7822;DHT22;3956;50.558;9.678;2022-12-18T14:42:37;-4.60;1.00
7822;DHT22;3956;50.558;9.678;2022-12-18T14:45:35;-4.50;1.00
7822;DHT22;3956;50.558;9.678;2022-12-18T14:48:16;-4.50;1.00
7822;DHT22;3956;50.558;9.678;2022-12-18T14:50:58;-4.50;1.00
7822;DHT22;3956;50.558;9.678;2022-12-18T14:53:34;-4.50;1.00
7822;DHT22;3956;50.558;9.678;2022-12-18T14:56:04;-4.50;1.00
7822;DHT22;3956;50.558;9.678;2022-12-18T14:58:45;-4.60;1.00
7822;DHT22;3956;50.558;9.678;2022-12-18T15:01:19;-4.60;1.00
7822;DHT22;3956;50.558;9.678;2022-12-18T15:03:51;-4.60;1.00
7822;DHT22;3956;50.558;9.678;2022-12-18T15:06:30;-4.50;1.00
7822;DHT22;3956;50.558;9.678;2022-12-18T15:09:01;-4.60;1.00
7822;DHT22;3956;50.558;9.678;2022-12-18T15:11:42;-4.60;1.00
7822;DHT22;3956;50.558;9.678;2022-12-18T15:14:35;-4.60;1.00
7822;DHT22;3956;50.558;9.678;2022-12-18T15:17:16;-4.70;1.00
7822;DHT22;3956;50.558;9.678;2022-12-18T15:19:48;-4.60;1.00
7822;DHT22;3956;50.558;9.678;2022-12-18T15:22:24;-4.70;1.00
7822;DHT22;3956;50.558;9.678;2022-12-18T15:24:54;-4.70;1.00
7822;DHT22;3956;50.558;9.678;2022-12-18T15:27:28;-4.60;1.00
7822;DHT22;3956;50.558;9.678;2022-12-18T15:30:10;-4.70;1.00
7822;DHT22;3956;50.558;9.678;2022-12-18T15:32:44;-4.60;1.00
7822;DHT22;3956;50.558;9.678;2022-12-18T15:35:17;-4.60;1.00
7822;DHT22;3956;50.558;9.678;2022-12-18T15:37:47;-4.70;1.00
7822;DHT22;3956;50.558;9.678;2022-12-18T15:40:18;-4.70;1.00
7822;DHT22;3956;50.558;9.678;2022-12-18T15:42:47;-4.70;1.00
7822;DHT22;3956;50.558;9.678;2022-12-18T15:45:33;-4.80;1.00
7822;DHT22;3956;50.558;9.678;2022-12-18T15:48:04;-4.70;1.00
7822;DHT22;3956;50.558;9.678;2022-12-18T15:50:34;-4.70;1.00
7822;DHT22;3956;50.558;9.678;2022-12-18T15:53:03;-4.80;1.00
7822;DHT22;3956;50.558;9.678;2022-12-18T15:55:33;-4.90;1.00
7822;DHT22;3956;50.558;9.678;2022-12-18T15:58:26;-4.90;1.00
7822;DHT22;3956;50.558;9.678;2022-12-18T16:00:56;-4.90;1.00
7822;DHT22;3956;50.558;9.678;2022-12-18T16:03:25;-4.90;1.00
7822;DHT22;3956;50.558;9.678;2022-12-18T16:05:55;-4.90;1.00
7822;DHT22;3956;50.558;9.678;2022-12-18T16:08:27;-4.80;1.00
7822;DHT22;3956;50.558;9.678;2022-12-18T16:10:56;-4.80;1.00
7822;DHT22;3956;50.558;9.678;2022-12-18T16:13:24;-4.90;1.00
7822;DHT22;3956;50.558;9.678;2022-12-18T16:15:53;-4.90;1.00
7822;DHT22;3956;50.558;9.678;2022-12-18T16:18:21;-4.90;1.00
7822;DHT22;3956;50.558;9.678;2022-12-18T16:20:50;-4.90;1.00
7822;DHT22;3956;50.558;9.678;2022-12-18T16:23:20;-5.00;1.00
7822;DHT22;3956;50.558;9.678;2022-12-18T16:25:48;-4.90;1.00
7822;DHT22;3956;50.558;9.678;2022-12-18T16:28:17;-4.90;1.00
7822;DHT22;3956;50.558;9.678;2022-12-18T16:30:46;-4.90;1.00
7822;DHT22;3956;50.558;9.678;2022-12-18T16:33:14;-4.90;1.00
7822;DHT22;3956;50.558;9.678;2022-12-18T16:35:43;-5.00;1.00
7822;DHT22;3956;50.558;9.678;2022-12-18T16:38:11;-4.90;1.00
7822;DHT22;3956;50.558;9.678;2022-12-18T16:40:41;-4.90;1.00
7822;DHT22;3956;50.558;9.678;2022-12-18T16:43:23;-4.90;1.00
7822;DHT22;3956;50.558;9.678;2022-12-18T16:45:52;-4.80;1.00
7822;DHT22;3956;50.558;9.678;2022-12-18T16:48:24;-4.80;1.00
7822;DHT22;3956;50.558;9.678;2022-12-18T16:51:00;-4.80;1.00
7822;DHT22;3956;50.558;9.678;2022-12-18T16:53:32;-4.70;1.00